createdAt,value
2022-07-30T00:00:50.883Z,18.10
2022-07-30T00:03:17.970Z,18.10
2022-07-30T00:05:45.029Z,18.00
2022-07-30T00:08:12.319Z,17.90
2022-07-30T00:10:39.465Z,17.90
2022-07-30T00:13:07.125Z,17.90
2022-07-30T00:15:34.349Z,17.90
2022-07-30T00:18:01.298Z,17.80
2022-07-30T00:20:28.469Z,17.80
2022-07-30T00:22:55.595Z,17.90
2022-07-30T00:25:22.795Z,17.80
2022-07-30T00:27:50.867Z,17.80
2022-07-30T00:30:17.815Z,17.80
2022-07-30T00:32:44.811Z,17.80
2022-07-30T00:35:13.870Z,17.70
2022-07-30T00:37:41.019Z,17.70
2022-07-30T00:40:09.202Z,17.60
2022-07-30T00:42:45.282Z,17.60
2022-07-30T00:45:16.800Z,17.70
2022-07-30T00:47:44.220Z,17.60
2022-07-30T00:50:13.481Z,17.60
2022-07-30T00:52:41.318Z,17.60
2022-07-30T00:55:14.410Z,17.60
2022-07-30T00:57:42.324Z,17.50
2022-07-30T01:00:13.467Z,17.50
2022-07-30T01:02:41.453Z,17.50
2022-07-30T01:05:09.129Z,17.40
2022-07-30T01:07:36.611Z,17.40
2022-07-30T01:10:05.042Z,17.40
2022-07-30T01:12:32.157Z,17.40
2022-07-30T01:15:02.995Z,17.40
2022-07-30T01:17:29.948Z,17.30
2022-07-30T01:20:02.331Z,17.30
2022-07-30T01:22:30.382Z,17.30
2022-07-30T01:25:04.052Z,17.30
2022-07-30T01:27:35.364Z,17.30
2022-07-30T01:30:04.968Z,17.30
2022-07-30T01:32:34.661Z,17.30
2022-07-30T01:35:04.142Z,17.30
2022-07-30T01:37:33.781Z,17.30
2022-07-30T01:40:01.179Z,17.30
2022-07-30T01:42:29.903Z,17.30
2022-07-30T01:44:59.247Z,17.40
2022-07-30T01:47:29.063Z,17.40
2022-07-30T01:49:57.443Z,17.40
2022-07-30T01:52:26.652Z,17.40
2022-07-30T01:54:56.385Z,17.40
2022-07-30T01:57:24.675Z,17.40
2022-07-30T01:59:58.981Z,17.40
2022-07-30T02:02:25.944Z,17.40
2022-07-30T02:04:52.996Z,17.50
2022-07-30T02:07:45.860Z,17.50
2022-07-30T02:10:22.378Z,17.60
2022-07-30T02:12:52.447Z,17.60
2022-07-30T02:15:41.578Z,17.60
2022-07-30T02:18:23.783Z,17.70
2022-07-30T02:21:10.102Z,17.70
2022-07-30T02:23:43.394Z,17.70
2022-07-30T02:26:16.148Z,17.70
2022-07-30T02:28:45.719Z,17.70
2022-07-30T02:31:17.063Z,17.70
2022-07-30T02:33:49.010Z,17.70
2022-07-30T02:36:19.171Z,17.70
2022-07-30T02:38:47.569Z,17.60
2022-07-30T02:41:15.403Z,17.60
2022-07-30T02:43:43.184Z,17.50
2022-07-30T02:46:12.879Z,17.50
2022-07-30T02:49:10.816Z,17.50
2022-07-30T02:51:40.309Z,17.50
2022-07-30T02:54:09.882Z,17.50
2022-07-30T02:56:40.780Z,17.60
2022-07-30T02:59:10.454Z,17.60
2022-07-30T03:01:37.877Z,17.70
2022-07-30T03:04:06.151Z,17.70
2022-07-30T03:06:34.083Z,17.70
2022-07-30T03:09:03.725Z,17.80
2022-07-30T03:11:31.803Z,17.70
2022-07-30T03:14:02.310Z,17.70
2022-07-30T03:16:33.176Z,17.60
2022-07-30T03:19:02.597Z,17.60
2022-07-30T03:21:34.794Z,17.50
2022-07-30T03:24:03.425Z,17.50
2022-07-30T03:26:32.221Z,17.50
2022-07-30T03:29:00.250Z,17.50
2022-07-30T03:31:32.605Z,17.50
2022-07-30T03:34:03.904Z,17.50
2022-07-30T03:36:34.983Z,17.50
2022-07-30T03:39:05.520Z,17.50
2022-07-30T03:41:33.562Z,17.50
2022-07-30T03:44:02.108Z,17.50
2022-07-30T03:46:31.019Z,17.40
2022-07-30T03:49:00.063Z,17.30
2022-07-30T03:51:33.014Z,17.30
2022-07-30T03:54:01.888Z,17.20
2022-07-30T03:56:51.249Z,17.20
2022-07-30T03:59:29.376Z,17.30
2022-07-30T04:02:04.714Z,17.20
2022-07-30T04:05:07.218Z,17.20
2022-07-30T04:07:34.410Z,17.20
2022-07-30T04:10:09.938Z,17.20
2022-07-30T04:13:00.271Z,17.10
2022-07-30T04:16:05.080Z,17.20
2022-07-30T04:18:18.823Z,17.20
2022-07-30T04:20:49.097Z,17.20
2022-07-30T04:23:16.579Z,17.20
2022-07-30T04:25:45.208Z,17.10
2022-07-30T04:28:13.701Z,17.10
2022-07-30T04:30:41.504Z,17.10
2022-07-30T04:33:08.641Z,17.00
2022-07-30T04:36:16.450Z,17.00
2022-07-30T04:38:43.653Z,17.00
2022-07-30T04:41:11.276Z,17.00
2022-07-30T04:44:04.114Z,17.00
2022-07-30T04:46:33.390Z,16.90
2022-07-30T04:49:00.440Z,16.90
2022-07-30T04:51:37.132Z,16.90
2022-07-30T04:54:08.685Z,16.90
2022-07-30T04:57:01.000Z,16.90
2022-07-30T04:59:28.617Z,17.00
2022-07-30T05:01:59.023Z,17.00
2022-07-30T05:04:28.752Z,17.00
2022-07-30T05:06:58.657Z,17.00
2022-07-30T05:09:27.661Z,17.00
2022-07-30T05:11:56.157Z,17.00
2022-07-30T05:14:24.395Z,17.00
2022-07-30T05:16:52.555Z,17.00
2022-07-30T05:19:21.067Z,17.00
2022-07-30T05:21:48.425Z,17.00
2022-07-30T05:24:15.660Z,17.10
2022-07-30T05:26:49.757Z,17.10
2022-07-30T05:29:19.903Z,17.20
2022-07-30T05:32:03.490Z,17.20
2022-07-30T05:34:34.418Z,17.20
2022-07-30T05:37:01.936Z,17.20
2022-07-30T05:39:29.267Z,17.30
2022-07-30T05:41:56.353Z,17.30
2022-07-30T05:44:45.849Z,17.30
2022-07-30T05:47:13.665Z,17.30
2022-07-30T05:49:40.761Z,17.40
2022-07-30T05:52:13.259Z,17.50
2022-07-30T05:54:41.115Z,17.50
2022-07-30T05:57:26.583Z,17.50
2022-07-30T05:59:53.698Z,17.60
2022-07-30T06:02:25.224Z,17.70
2022-07-30T06:05:04.303Z,17.80
2022-07-30T06:07:31.419Z,17.90
2022-07-30T06:10:01.772Z,18.00
2022-07-30T06:12:29.642Z,18.10
2022-07-30T06:14:57.833Z,18.10
2022-07-30T06:17:41.430Z,18.20
2022-07-30T06:20:21.372Z,18.20
2022-07-30T06:23:08.508Z,18.30
2022-07-30T06:25:57.822Z,18.40
2022-07-30T06:28:37.707Z,18.50
2022-07-30T06:31:12.970Z,18.50
2022-07-30T06:33:40.040Z,18.60
2022-07-30T06:36:07.246Z,18.60
2022-07-30T06:38:46.352Z,18.70
2022-07-30T06:41:23.188Z,18.70
2022-07-30T06:43:57.077Z,18.80
2022-07-30T06:46:52.893Z,18.80
2022-07-30T06:49:24.535Z,18.90
2022-07-30T06:51:51.943Z,18.90
2022-07-30T06:54:18.898Z,19.00
2022-07-30T06:57:03.148Z,19.10
2022-07-30T06:59:30.674Z,19.10
2022-07-30T07:01:57.720Z,19.10
2022-07-30T07:04:24.796Z,19.20
2022-07-30T07:06:52.314Z,19.30
2022-07-30T07:09:28.055Z,19.30
2022-07-30T07:12:17.535Z,19.30
2022-07-30T07:14:45.516Z,19.30
2022-07-30T07:17:12.995Z,19.40
2022-07-30T07:20:00.371Z,19.60
2022-07-30T07:22:32.050Z,19.70
2022-07-30T07:24:58.948Z,19.80
2022-07-30T07:27:30.194Z,19.90
2022-07-30T07:30:01.610Z,19.90
2022-07-30T07:32:35.295Z,20.00
2022-07-30T07:35:04.136Z,20.00
2022-07-30T07:37:32.603Z,19.90
2022-07-30T07:39:59.668Z,19.90
2022-07-30T07:42:29.711Z,20.00
2022-07-30T07:44:56.740Z,20.10
2022-07-30T07:47:24.089Z,20.20
2022-07-30T07:50:09.264Z,20.30
2022-07-30T07:52:36.166Z,20.40
2022-07-30T07:55:03.532Z,20.50
2022-07-30T07:57:41.170Z,20.60
2022-07-30T08:00:11.277Z,20.70
2022-07-30T08:02:46.678Z,20.60
2022-07-30T08:05:15.177Z,20.70
2022-07-30T08:07:53.953Z,20.80
2022-07-30T08:10:21.267Z,21.00
2022-07-30T08:13:48.306Z,21.10
2022-07-30T08:16:18.926Z,21.10
2022-07-30T08:19:14.955Z,21.10
2022-07-30T08:21:48.772Z,21.10
2022-07-30T08:24:17.729Z,21.20
2022-07-30T08:26:44.731Z,21.40
2022-07-30T08:29:16.793Z,21.40
2022-07-30T08:31:46.142Z,21.40
2022-07-30T08:34:13.917Z,21.50
2022-07-30T08:36:41.985Z,21.70
2022-07-30T08:39:09.139Z,21.70
2022-07-30T08:41:38.969Z,21.90
2022-07-30T08:44:12.957Z,21.90
2022-07-30T08:46:47.260Z,22.00
2022-07-30T08:49:53.535Z,22.00
2022-07-30T08:52:25.282Z,22.00
2022-07-30T08:55:01.014Z,22.00
2022-07-30T08:57:31.885Z,22.10
2022-07-30T09:00:01.576Z,22.10
2022-07-30T09:02:31.862Z,22.20
2022-07-30T09:05:04.476Z,22.30
2022-07-30T09:07:33.895Z,22.30
2022-07-30T09:10:03.519Z,22.30
2022-07-30T09:12:45.249Z,22.30
2022-07-30T09:15:19.380Z,22.40
2022-07-30T09:17:46.362Z,22.60
2022-07-30T09:20:16.769Z,22.70
2022-07-30T09:22:51.858Z,22.90
2022-07-30T09:25:42.500Z,23.00
2022-07-30T09:28:32.237Z,23.10
2022-07-30T09:31:15.323Z,23.10
2022-07-30T09:34:01.040Z,23.20
2022-07-30T09:37:09.154Z,23.20
2022-07-30T09:39:56.456Z,23.30
2022-07-30T09:42:47.042Z,23.30
2022-07-30T09:45:16.675Z,23.40
2022-07-30T09:47:49.468Z,23.50
2022-07-30T09:50:30.553Z,23.50
2022-07-30T09:53:08.852Z,23.60
2022-07-30T09:55:41.376Z,23.70
2022-07-30T09:58:12.617Z,23.80
2022-07-30T10:00:42.440Z,23.90
2022-07-30T10:03:38.522Z,23.90
2022-07-30T10:06:37.989Z,23.90
2022-07-30T10:09:31.614Z,24.00
2022-07-30T10:12:04.756Z,24.00
2022-07-30T10:14:42.297Z,24.10
2022-07-30T10:17:10.731Z,24.20
2022-07-30T10:19:42.109Z,24.30
2022-07-30T10:22:48.095Z,24.40
2022-07-30T10:25:28.388Z,24.50
2022-07-30T10:28:15.354Z,24.50
2022-07-30T10:30:45.283Z,24.40
2022-07-30T10:33:34.633Z,24.40
2022-07-30T10:36:02.605Z,24.40
2022-07-30T10:38:34.393Z,24.40
2022-07-30T10:41:42.589Z,24.60
2022-07-30T10:44:25.344Z,24.60
2022-07-30T10:46:58.211Z,24.80
2022-07-30T10:49:26.057Z,24.80
2022-07-30T10:51:57.529Z,24.80
2022-07-30T10:54:33.940Z,24.90
2022-07-30T10:57:07.834Z,25.10
2022-07-30T11:00:09.660Z,25.30
2022-07-30T11:02:36.805Z,25.40
2022-07-30T11:05:27.371Z,25.40
2022-07-30T11:08:31.742Z,25.60
2022-07-30T11:11:00.011Z,25.70
2022-07-30T11:13:57.877Z,25.80
2022-07-30T11:16:50.934Z,25.70
2022-07-30T11:19:56.876Z,25.80
2022-07-30T11:22:36.744Z,26.10
2022-07-30T11:25:12.504Z,26.20
2022-07-30T11:27:49.378Z,26.10
2022-07-30T11:30:17.064Z,26.20
2022-07-30T11:32:48.553Z,26.40
2022-07-30T11:35:25.620Z,26.50
2022-07-30T11:38:02.279Z,26.50
2022-07-30T11:40:34.897Z,26.40
2022-07-30T11:43:34.766Z,26.40
2022-07-30T11:46:07.415Z,26.70
2022-07-30T11:48:39.350Z,26.80
2022-07-30T11:51:07.088Z,26.70
2022-07-30T11:53:34.806Z,26.80
2022-07-30T11:56:03.377Z,26.80
2022-07-30T11:58:38.351Z,26.90
2022-07-30T12:01:16.966Z,26.80
2022-07-30T12:03:45.529Z,26.90
2022-07-30T12:06:19.960Z,27.00
2022-07-30T12:08:49.398Z,27.20
2022-07-30T12:11:17.170Z,27.50
2022-07-30T12:13:54.920Z,27.80
2022-07-30T12:16:21.959Z,27.60
2022-07-30T12:18:49.067Z,28.00
2022-07-30T12:21:16.843Z,28.60
2022-07-30T12:24:05.272Z,29.10
2022-07-30T12:26:34.165Z,29.60
2022-07-30T12:29:06.807Z,29.80
2022-07-30T12:31:34.243Z,29.80
2022-07-30T12:34:05.306Z,30.00
2022-07-30T12:36:36.177Z,30.40
2022-07-30T12:39:04.991Z,30.90
2022-07-30T12:41:43.829Z,31.00
2022-07-30T12:44:11.291Z,31.30
2022-07-30T12:46:43.540Z,31.40
2022-07-30T12:49:21.214Z,31.40
2022-07-30T12:51:59.782Z,31.00
2022-07-30T12:54:28.922Z,30.60
2022-07-30T12:56:58.502Z,30.20
2022-07-30T12:59:26.240Z,30.50
2022-07-30T13:01:53.792Z,31.00
2022-07-30T13:04:21.023Z,31.20
2022-07-30T13:07:05.136Z,31.30
2022-07-30T13:09:32.372Z,31.20
2022-07-30T13:11:59.541Z,30.90
2022-07-30T13:14:27.323Z,30.50
2022-07-30T13:16:58.809Z,30.10
2022-07-30T13:19:26.992Z,30.50
2022-07-30T13:21:53.947Z,30.80
2022-07-30T13:24:21.209Z,31.00
2022-07-30T13:26:50.853Z,30.90
2022-07-30T13:29:17.908Z,30.70
2022-07-30T13:31:44.813Z,30.70
2022-07-30T13:34:14.506Z,30.40
2022-07-30T13:36:41.862Z,29.70
2022-07-30T13:39:13.929Z,29.10
2022-07-30T13:41:42.101Z,28.90
2022-07-30T13:44:09.159Z,29.00
2022-07-30T13:46:36.380Z,29.20
2022-07-30T13:49:04.574Z,29.50
2022-07-30T13:51:31.624Z,29.80
2022-07-30T13:53:58.675Z,30.40
2022-07-30T13:56:25.854Z,30.80
2022-07-30T13:58:52.767Z,31.30
2022-07-30T14:01:19.710Z,32.00
2022-07-30T14:03:50.193Z,32.70
2022-07-30T14:06:19.157Z,33.10
2022-07-30T14:08:46.592Z,33.40
2022-07-30T14:11:13.847Z,33.70
2022-07-30T14:13:40.743Z,33.90
2022-07-30T14:16:28.329Z,34.00
2022-07-30T14:18:55.617Z,34.40
2022-07-30T14:21:22.509Z,34.60
2022-07-30T14:23:51.867Z,34.80
2022-07-30T14:26:18.989Z,35.00
2022-07-30T14:28:45.966Z,34.40
2022-07-30T14:31:12.928Z,33.30
2022-07-30T14:33:40.129Z,32.40
2022-07-30T14:36:07.182Z,32.00
2022-07-30T14:38:34.151Z,32.10
2022-07-30T14:41:01.063Z,32.10
2022-07-30T14:43:27.977Z,31.70
2022-07-30T14:45:54.969Z,31.20
2022-07-30T14:48:21.990Z,30.60
2022-07-30T14:51:12.896Z,30.20
2022-07-30T14:53:38.809Z,30.10
2022-07-30T14:56:05.770Z,30.50
2022-07-30T14:58:32.712Z,30.50
2022-07-30T15:01:16.564Z,30.60
2022-07-30T15:03:47.687Z,30.60
2022-07-30T15:06:15.708Z,30.50
2022-07-30T15:08:43.299Z,30.30
2022-07-30T15:11:10.296Z,30.00
2022-07-30T15:13:50.091Z,29.60
2022-07-30T15:16:19.087Z,29.40
2022-07-30T15:18:46.519Z,29.10
2022-07-30T15:21:13.796Z,28.90
2022-07-30T15:23:44.327Z,28.70
2022-07-30T15:26:11.770Z,28.60
2022-07-30T15:28:38.886Z,28.50
2022-07-30T15:31:05.904Z,28.30
2022-07-30T15:33:37.072Z,28.10
2022-07-30T15:36:04.495Z,28.10
2022-07-30T15:38:31.596Z,28.20
2022-07-30T15:40:58.537Z,28.30
2022-07-30T15:43:25.602Z,28.30
2022-07-30T15:45:55.783Z,28.20
2022-07-30T15:48:27.828Z,28.20
2022-07-30T15:51:04.519Z,28.20
2022-07-30T15:53:32.330Z,28.00
2022-07-30T15:55:59.862Z,27.80
2022-07-30T15:58:27.081Z,27.80
2022-07-30T16:00:54.375Z,27.80
2022-07-30T16:03:21.450Z,27.80
2022-07-30T16:05:52.945Z,28.30
2022-07-30T16:08:23.298Z,29.00
2022-07-30T16:10:51.984Z,30.00
2022-07-30T16:13:19.524Z,31.10
2022-07-30T16:15:46.612Z,31.90
2022-07-30T16:18:13.721Z,32.40
2022-07-30T16:20:40.635Z,33.00
2022-07-30T16:23:13.145Z,32.90
2022-07-30T16:25:42.013Z,33.00
2022-07-30T16:28:09.077Z,33.10
2022-07-30T16:30:36.112Z,32.80
2022-07-30T16:33:21.373Z,32.20
2022-07-30T16:35:51.222Z,31.70
2022-07-30T16:38:20.005Z,31.40
2022-07-30T16:40:47.003Z,31.00
2022-07-30T16:43:20.320Z,30.70
2022-07-30T16:45:47.842Z,30.40
2022-07-30T16:48:14.970Z,29.90
2022-07-30T16:50:42.936Z,29.80
2022-07-30T16:53:14.045Z,29.80
2022-07-30T16:55:42.671Z,29.80
2022-07-30T16:58:10.191Z,29.70
2022-07-30T17:00:37.597Z,29.50
2022-07-30T17:03:04.721Z,29.20
2022-07-30T17:05:31.770Z,28.70
2022-07-30T17:07:58.989Z,28.30
2022-07-30T17:10:26.678Z,28.00
2022-07-30T17:12:57.224Z,27.80
2022-07-30T17:15:32.115Z,27.50
2022-07-30T17:18:03.162Z,27.30
2022-07-30T17:20:31.339Z,27.10
2022-07-30T17:22:58.377Z,26.90
2022-07-30T17:25:28.303Z,26.90
2022-07-30T17:27:56.822Z,26.70
2022-07-30T17:30:25.068Z,26.70
2022-07-30T17:32:52.245Z,26.70
2022-07-30T17:35:19.865Z,26.50
2022-07-30T17:37:49.830Z,26.50
2022-07-30T17:40:29.722Z,26.40
2022-07-30T17:43:08.444Z,26.30
2022-07-30T17:45:36.945Z,26.20
2022-07-30T17:48:05.373Z,26.20
2022-07-30T17:50:33.504Z,26.10
2022-07-30T17:53:03.662Z,26.10
2022-07-30T17:55:31.648Z,26.00
2022-07-30T17:57:58.614Z,25.90
2022-07-30T18:00:25.821Z,25.90
2022-07-30T18:02:52.970Z,25.90
2022-07-30T18:05:20.089Z,25.80
2022-07-30T18:07:46.994Z,25.80
2022-07-30T18:10:14.116Z,25.80
2022-07-30T18:12:49.149Z,25.80
2022-07-30T18:15:17.735Z,25.70
2022-07-30T18:17:45.160Z,25.70
2022-07-30T18:20:12.598Z,25.60
2022-07-30T18:22:40.325Z,25.60
2022-07-30T18:25:07.976Z,25.60
2022-07-30T18:27:45.136Z,25.50
2022-07-30T18:30:12.392Z,25.50
2022-07-30T18:32:39.486Z,25.50
2022-07-30T18:35:12.035Z,25.40
2022-07-30T18:37:41.846Z,25.30
2022-07-30T18:40:10.722Z,25.30
2022-07-30T18:42:37.773Z,25.30
2022-07-30T18:45:06.193Z,25.20
2022-07-30T18:47:33.185Z,25.20
2022-07-30T18:50:00.350Z,25.20
2022-07-30T18:52:27.406Z,25.10
2022-07-30T18:54:54.342Z,25.10
2022-07-30T18:57:21.408Z,25.10
2022-07-30T18:59:51.155Z,25.10
2022-07-30T19:02:18.423Z,25.00
2022-07-30T19:04:45.424Z,25.00
2022-07-30T19:07:12.667Z,24.90
2022-07-30T19:09:39.662Z,24.90
2022-07-30T19:12:07.168Z,24.90
2022-07-30T19:14:34.607Z,24.90
2022-07-30T19:17:01.584Z,24.80
2022-07-30T19:19:29.815Z,24.80
2022-07-30T19:21:57.035Z,24.70
2022-07-30T19:24:24.521Z,24.70
2022-07-30T19:26:55.947Z,24.70
2022-07-30T19:29:22.992Z,24.70
2022-07-30T19:31:50.187Z,24.60
2022-07-30T19:34:18.978Z,24.60
2022-07-30T19:36:45.926Z,24.60
2022-07-30T19:39:21.219Z,24.50
2022-07-30T19:41:51.464Z,24.50
2022-07-30T19:44:19.035Z,24.50
2022-07-30T19:46:46.358Z,24.50
2022-07-30T19:49:15.794Z,24.40
2022-07-30T19:52:07.276Z,24.40
2022-07-30T19:54:30.047Z,24.30
2022-07-30T19:56:56.981Z,24.30
2022-07-30T19:59:45.829Z,24.30
2022-07-30T20:02:14.590Z,24.30
2022-07-30T20:04:43.631Z,24.20
2022-07-30T20:07:10.966Z,24.20
2022-07-30T20:09:38.926Z,24.10
2022-07-30T20:12:10.118Z,24.10
2022-07-30T20:14:37.129Z,24.10
2022-07-30T20:17:10.706Z,24.00
2022-07-30T20:19:37.994Z,24.00
2022-07-30T20:22:04.934Z,24.00
2022-07-30T20:24:33.764Z,24.00
2022-07-30T20:27:01.767Z,23.90
2022-07-30T20:29:48.668Z,23.90
2022-07-30T20:32:20.008Z,23.80
2022-07-30T20:34:46.908Z,23.80
2022-07-30T20:37:19.544Z,23.80
2022-07-30T20:39:49.466Z,23.70
2022-07-30T20:42:17.049Z,23.70
2022-07-30T20:44:50.750Z,23.70
2022-07-30T20:47:38.252Z,23.60
2022-07-30T20:50:09.508Z,23.60
2022-07-30T20:52:39.343Z,23.60
2022-07-30T20:55:13.036Z,23.60
2022-07-30T20:57:57.301Z,23.50
2022-07-30T21:00:29.600Z,23.50
2022-07-30T21:02:56.521Z,23.50
2022-07-30T21:05:26.995Z,23.50
2022-07-30T21:07:54.459Z,23.40
2022-07-30T21:10:23.565Z,23.40
2022-07-30T21:12:53.386Z,23.40
2022-07-30T21:15:32.830Z,23.40
2022-07-30T21:18:01.596Z,23.40
2022-07-30T21:20:30.234Z,23.40
2022-07-30T21:23:04.083Z,23.30
2022-07-30T21:25:32.938Z,23.30
2022-07-30T21:28:02.913Z,23.30
2022-07-30T21:30:31.108Z,23.30
2022-07-30T21:32:58.318Z,23.20
2022-07-30T21:35:25.724Z,23.20
2022-07-30T21:37:59.256Z,23.20
2022-07-30T21:40:27.697Z,23.20
2022-07-30T21:42:55.813Z,23.10
2022-07-30T21:45:23.876Z,23.10
2022-07-30T21:47:55.296Z,23.10
2022-07-30T21:50:22.305Z,23.10
2022-07-30T21:52:50.220Z,23.10
2022-07-30T21:55:18.520Z,23.10
2022-07-30T21:57:51.420Z,23.00
2022-07-30T22:00:22.463Z,23.00
2022-07-30T22:02:53.866Z,23.00
2022-07-30T22:05:23.248Z,23.00
2022-07-30T22:07:50.462Z,23.00
2022-07-30T22:10:21.638Z,23.00
2022-07-30T22:12:48.982Z,22.90
2022-07-30T22:15:18.100Z,22.90
2022-07-30T22:17:57.837Z,22.90
2022-07-30T22:20:26.921Z,22.80
2022-07-30T22:22:55.539Z,22.80
2022-07-30T22:25:22.855Z,22.80
2022-07-30T22:27:56.830Z,22.80
2022-07-30T22:30:26.847Z,22.80
2022-07-30T22:32:55.052Z,22.70
2022-07-30T22:35:33.587Z,22.70
2022-07-30T22:38:01.639Z,22.70
2022-07-30T22:40:28.590Z,22.70
2022-07-30T22:42:55.538Z,22.60
2022-07-30T22:45:47.077Z,22.60
2022-07-30T22:48:10.975Z,22.70
2022-07-30T22:50:40.132Z,22.60
2022-07-30T22:54:03.269Z,22.60
2022-07-30T22:55:54.690Z,22.60
2022-07-30T22:58:22.183Z,22.60
2022-07-30T23:00:53.567Z,22.60
2022-07-30T23:03:23.142Z,22.60
2022-07-30T23:05:55.340Z,22.60
2022-07-30T23:08:30.329Z,22.60
2022-07-30T23:10:59.723Z,22.60
2022-07-30T23:13:27.581Z,22.60
2022-07-30T23:15:54.501Z,22.60
2022-07-30T23:18:21.533Z,22.50
2022-07-30T23:20:51.421Z,22.50
2022-07-30T23:23:20.505Z,22.50
2022-07-30T23:25:48.540Z,22.50
2022-07-30T23:28:15.563Z,22.50
2022-07-30T23:30:42.623Z,22.40
2022-07-30T23:33:09.650Z,22.40
2022-07-30T23:35:37.457Z,22.40
2022-07-30T23:38:04.442Z,22.40
2022-07-30T23:40:31.395Z,22.40
2022-07-30T23:42:58.334Z,22.40
2022-07-30T23:45:25.355Z,22.40
2022-07-30T23:48:02.408Z,22.30
2022-07-30T23:50:32.651Z,22.30
2022-07-30T23:53:00.639Z,22.30
2022-07-30T23:55:28.096Z,22.30
2022-07-30T23:57:55.685Z,22.20
